UAE216 KLAX-OMDB
Flight info
| Callsign | UAE216 |
|---|---|
| Flight time | N/A |
| Altitude | 31000 |
| Route | OSHNN1 BEALE J146 DICEE DCT KD45Q DCT KD48S DCT KD51U DCT KD57A DCT KP66G DCT KG75K DCT BAE/N0484F330 DCT DAYYY DCT ROSVO DCT MIILS N285B NICSO/M082F330 DCT 48N050W 50N040W 51N030W 51N020W DCT DINIM DCT ELSOX DCT LULOX/N0472F330 DCT LIZAD/N0466F350 DCT JSY DCT ARSUK/N0473F370 DCT RESMI UL612 OGULO DCT OKASI DCT OKEKO DCT MOU DCT MADIV DCT MOKIP DCT TUFTA DCT KOGAS DCT MEDAM DCT NITAM DCT MOGBO DCT UPDIN DCT ARBUM DCT BELIX DCT SALUN N705 MMA/N0476F390 P751 DASUM Y234 FYM M872 BDB Y214 RAPMA DCT KUVSO DCT KATIT DCT PEKEM M628 RIGIL G783 ELUDA/N0459F350 G783 ASPED Q308 KIPOK/N0455F340 Q568 IMPED |
| Aircraft | B77W/H-SDE1E2E3FGHIJ2J3J4J5M1RWXY/LB1D1 |
Departure
| Time | 2026-04-20 22:30 |
|---|---|
| Airport | Los Angeles International Airport (KLAX) |
Arrival
| Time | N/A |
|---|---|
| Airport | Dubai International Airport (OMDB) |
| Time | Latitude | Longitude | Altitude | Speed | Heading |
|---|---|---|---|---|---|
| 2026-04-20 22:02 | 33.94089 | -118.40927 | 138 ft | 0 kts | 263° |
| 2026-04-20 22:15 | 33.94090 | -118.40916 | 138 ft | 2 kts | 263° |
| 2026-04-20 22:16 | 33.94092 | -118.40899 | 138 ft | 2 kts | 263° |
| 2026-04-20 22:16 | 33.94094 | -118.40881 | 138 ft | 2 kts | 263° |
| 2026-04-20 22:16 | 33.94096 | -118.40864 | 138 ft | 1 kts | 263° |
| 2026-04-20 22:16 | 33.94097 | -118.40852 | 138 ft | 2 kts | 246° |
| 2026-04-20 22:17 | 33.94107 | -118.40839 | 138 ft | 2 kts | 202° |
| 2026-04-20 22:17 | 33.94118 | -118.40836 | 138 ft | 0 kts | 173° |
| 2026-04-20 22:17 | 33.94123 | -118.40837 | 138 ft | 0 kts | 173° |
| 2026-04-20 22:21 | 33.94114 | -118.40836 | 138 ft | 3 kts | 172° |
| 2026-04-20 22:21 | 33.94083 | -118.40830 | 138 ft | 5 kts | 173° |
| 2026-04-20 22:21 | 33.94047 | -118.40826 | 138 ft | 5 kts | 173° |
| 2026-04-20 22:21 | 33.94004 | -118.40820 | 138 ft | 8 kts | 173° |
| 2026-04-20 22:22 | 33.93928 | -118.40807 | 139 ft | 11 kts | 167° |
| 2026-04-20 22:22 | 33.93890 | -118.40784 | 140 ft | 0 kts | 139° |
| 2026-04-20 22:22 | 33.93883 | -118.40776 | 140 ft | 4 kts | 137° |
| 2026-04-20 22:22 | 33.93846 | -118.40743 | 141 ft | 9 kts | 144° |
| 2026-04-20 22:23 | 33.93808 | -118.40656 | 140 ft | 13 kts | 89° |
| 2026-04-20 22:23 | 33.93822 | -118.40549 | 138 ft | 12 kts | 81° |
| 2026-04-20 22:23 | 33.93833 | -118.40445 | 136 ft | 12 kts | 84° |
| 2026-04-20 22:23 | 33.93843 | -118.40340 | 133 ft | 12 kts | 83° |
| 2026-04-20 22:24 | 33.93854 | -118.40236 | 131 ft | 12 kts | 83° |
| 2026-04-20 22:24 | 33.93866 | -118.40121 | 129 ft | 14 kts | 83° |
| 2026-04-20 22:24 | 33.93879 | -118.39990 | 127 ft | 16 kts | 83° |
| 2026-04-20 22:24 | 33.93893 | -118.39846 | 126 ft | 18 kts | 83° |
| 2026-04-20 22:25 | 33.93909 | -118.39693 | 124 ft | 19 kts | 83° |
| 2026-04-20 22:25 | 33.93926 | -118.39524 | 120 ft | 20 kts | 83° |
| 2026-04-20 22:25 | 33.93944 | -118.39362 | 118 ft | 18 kts | 83° |
| 2026-04-20 22:25 | 33.93959 | -118.39211 | 116 ft | 16 kts | 84° |
| 2026-04-20 22:26 | 33.93972 | -118.39080 | 116 ft | 14 kts | 83° |
| 2026-04-20 22:26 | 33.93985 | -118.38964 | 115 ft | 13 kts | 84° |
| 2026-04-20 22:26 | 33.93995 | -118.38851 | 114 ft | 15 kts | 84° |
| 2026-04-20 22:27 | 33.94028 | -118.38534 | 112 ft | 22 kts | 82° |
| 2026-04-20 22:27 | 33.94046 | -118.38345 | 111 ft | 22 kts | 83° |
| 2026-04-20 22:27 | 33.94063 | -118.38189 | 110 ft | 17 kts | 82° |
| 2026-04-20 22:27 | 33.94076 | -118.38063 | 109 ft | 13 kts | 93° |
| 2026-04-20 22:28 | 33.94027 | -118.37997 | 108 ft | 8 kts | 176° |
| 2026-04-20 22:28 | 33.93987 | -118.38027 | 109 ft | 5 kts | 246° |
| 2026-04-20 22:28 | 33.93981 | -118.38061 | 109 ft | 0 kts | 263° |
| 2026-04-20 22:29 | 33.93968 | -118.38181 | 110 ft | 37 kts | 262° |
| 2026-04-20 22:29 | 33.93913 | -118.38697 | 113 ft | 85 kts | 263° |
| 2026-04-20 22:29 | 33.93824 | -118.39580 | 121 ft | 127 kts | 263° |
| 2026-04-20 22:30 | 33.93701 | -118.40789 | 140 ft | 163 kts | 263° |
| 2026-04-20 22:30 | 33.93546 | -118.42248 | 267 ft | 181 kts | 260° |
| 2026-04-20 22:30 | 33.93356 | -118.43732 | 645 ft | 178 kts | 261° |
| 2026-04-20 22:30 | 33.93164 | -118.45219 | 942 ft | 189 kts | 253° |
| 2026-04-20 22:31 | 33.92546 | -118.46695 | 1131 ft | 206 kts | 236° |
| 2026-04-20 22:31 | 33.91670 | -118.48134 | 1289 ft | 221 kts | 233° |
| 2026-04-20 22:31 | 33.90686 | -118.49637 | 1466 ft | 234 kts | 231° |
| 2026-04-20 22:31 | 33.89576 | -118.51113 | 1835 ft | 239 kts | 219° |
| 2026-04-20 22:32 | 33.88083 | -118.51953 | 2161 ft | 244 kts | 188° |
| 2026-04-20 22:32 | 33.86327 | -118.52069 | 2398 ft | 256 kts | 181° |
| 2026-04-20 22:32 | 33.84527 | -118.52075 | 2800 ft | 261 kts | 181° |
| 2026-04-20 22:32 | 33.82695 | -118.52077 | 3169 ft | 268 kts | 181° |
| 2026-04-20 22:33 | 33.80819 | -118.52078 | 3628 ft | 270 kts | 181° |
| 2026-04-20 22:33 | 33.78941 | -118.52079 | 4138 ft | 271 kts | 180° |
| 2026-04-20 22:33 | 33.77054 | -118.52080 | 4634 ft | 271 kts | 180° |
| 2026-04-20 22:33 | 33.75145 | -118.52080 | 5111 ft | 273 kts | 180° |
| 2026-04-20 22:34 | 33.73249 | -118.52081 | 5598 ft | 273 kts | 180° |
| 2026-04-20 22:34 | 33.71364 | -118.51760 | 5995 ft | 275 kts | 158° |
| 2026-04-20 22:34 | 33.69774 | -118.50524 | 6396 ft | 277 kts | 133° |
| 2026-04-20 22:34 | 33.68742 | -118.48576 | 6829 ft | 279 kts | 115° |
| 2026-04-20 22:35 | 33.68029 | -118.46384 | 7237 ft | 282 kts | 111° |
| 2026-04-20 22:35 | 33.67376 | -118.44173 | 7643 ft | 284 kts | 111° |
| 2026-04-20 22:35 | 33.66718 | -118.41936 | 8069 ft | 286 kts | 111° |
| 2026-04-20 22:35 | 33.66048 | -118.39670 | 8478 ft | 288 kts | 111° |
| 2026-04-20 22:36 | 33.65383 | -118.37423 | 8873 ft | 290 kts | 112° |
| 2026-04-20 22:36 | 33.64719 | -118.35139 | 9285 ft | 291 kts | 107° |
| 2026-04-20 22:36 | 33.64521 | -118.32718 | 9574 ft | 299 kts | 84° |
| 2026-04-20 22:36 | 33.65200 | -118.30348 | 9911 ft | 305 kts | 58° |
| 2026-04-20 22:37 | 33.66580 | -118.28385 | 10184 ft | 313 kts | 47° |
| 2026-04-20 22:37 | 33.68170 | -118.26471 | 10237 ft | 329 kts | 46° |
| 2026-04-20 22:37 | 33.69845 | -118.24479 | 10292 ft | 345 kts | 46° |
| 2026-04-20 22:37 | 33.71582 | -118.22413 | 10359 ft | 360 kts | 46° |
| 2026-04-20 22:38 | 33.73403 | -118.20248 | 10436 ft | 374 kts | 46° |
| 2026-04-20 22:38 | 33.75293 | -118.18000 | 10648 ft | 385 kts | 46° |
| 2026-04-20 22:38 | 33.77190 | -118.15742 | 11087 ft | 388 kts | 46° |
| 2026-04-20 22:38 | 33.79117 | -118.13448 | 11595 ft | 391 kts | 46° |
| 2026-04-20 22:39 | 33.81057 | -118.11137 | 12075 ft | 395 kts | 46° |
| 2026-04-20 22:39 | 33.83036 | -118.08777 | 12554 ft | 399 kts | 46° |
| 2026-04-20 22:39 | 33.85000 | -118.06433 | 13048 ft | 404 kts | 46° |
| 2026-04-20 22:39 | 33.87001 | -118.04044 | 13544 ft | 409 kts | 46° |
| 2026-04-20 22:40 | 33.89052 | -118.01594 | 14082 ft | 413 kts | 46° |
| 2026-04-20 22:40 | 33.91083 | -117.99165 | 14680 ft | 416 kts | 46° |
| 2026-04-20 22:40 | 33.93144 | -117.96699 | 15279 ft | 420 kts | 46° |
| 2026-04-20 22:40 | 33.95221 | -117.94212 | 15871 ft | 424 kts | 46° |
| 2026-04-20 22:41 | 33.97310 | -117.91709 | 16451 ft | 427 kts | 46° |
| 2026-04-20 22:41 | 33.99449 | -117.89143 | 16975 ft | 432 kts | 46° |
| 2026-04-20 22:41 | 34.01587 | -117.86577 | 17507 ft | 436 kts | 46° |
| 2026-04-20 22:41 | 34.03722 | -117.84012 | 18000 ft | 441 kts | 46° |
| 2026-04-20 22:42 | 34.05918 | -117.81371 | 18598 ft | 444 kts | 46° |
| 2026-04-20 22:42 | 34.08102 | -117.78742 | 19213 ft | 446 kts | 46° |
| 2026-04-20 22:42 | 34.10157 | -117.75962 | 19681 ft | 450 kts | 51° |
| 2026-04-20 22:42 | 34.12174 | -117.72983 | 20184 ft | 455 kts | 52° |
| 2026-04-20 22:43 | 34.14166 | -117.70023 | 20751 ft | 457 kts | 52° |
| 2026-04-20 22:43 | 34.16170 | -117.67042 | 21321 ft | 459 kts | 52° |
| 2026-04-20 22:43 | 34.18183 | -117.64051 | 21838 ft | 462 kts | 52° |
| 2026-04-20 22:43 | 34.20200 | -117.61050 | 22290 ft | 466 kts | 52° |
| 2026-04-20 22:44 | 34.22252 | -117.57996 | 22763 ft | 469 kts | 52° |
| 2026-04-20 22:44 | 34.24318 | -117.54919 | 23253 ft | 472 kts | 52° |
| 2026-04-20 22:44 | 34.26380 | -117.51845 | 23727 ft | 474 kts | 52° |
| 2026-04-20 22:44 | 34.28455 | -117.48751 | 24150 ft | 478 kts | 52° |
| 2026-04-20 22:45 | 34.30564 | -117.45603 | 24572 ft | 481 kts | 52° |
| 2026-04-20 22:45 | 34.32663 | -117.42467 | 25006 ft | 484 kts | 52° |
| 2026-04-20 22:45 | 34.34790 | -117.39285 | 25406 ft | 487 kts | 52° |
| 2026-04-20 22:45 | 34.36929 | -117.36085 | 25800 ft | 491 kts | 52° |
| 2026-04-20 22:46 | 34.39055 | -117.32900 | 26251 ft | 492 kts | 52° |
| 2026-04-20 22:46 | 34.41219 | -117.29655 | 26649 ft | 495 kts | 53° |
| 2026-04-20 22:46 | 34.43381 | -117.26412 | 27050 ft | 497 kts | 53° |
| 2026-04-20 22:46 | 34.45560 | -117.23139 | 27430 ft | 500 kts | 52° |
| 2026-04-20 22:47 | 34.47758 | -117.19833 | 27824 ft | 502 kts | 52° |
| 2026-04-20 22:47 | 34.49930 | -117.16567 | 28193 ft | 505 kts | 53° |
| 2026-04-20 22:47 | 34.52150 | -117.13223 | 28563 ft | 508 kts | 53° |
| 2026-04-20 22:47 | 34.54344 | -117.09915 | 28911 ft | 510 kts | 53° |
| 2026-04-20 22:48 | 34.56607 | -117.06583 | 29263 ft | 513 kts | 52° |
| 2026-04-20 22:48 | 34.58919 | -117.03229 | 29689 ft | 514 kts | 52° |
| 2026-04-20 22:48 | 34.61188 | -116.99933 | 30199 ft | 512 kts | 51° |
| 2026-04-20 22:48 | 34.63462 | -116.96627 | 30708 ft | 510 kts | 52° |
| 2026-04-20 22:49 | 34.65729 | -116.93323 | 31031 ft | 512 kts | 51° |
| 2026-04-20 22:49 | 34.68003 | -116.90005 | 31040 ft | 512 kts | 52° |
| 2026-04-20 22:49 | 34.72517 | -116.83408 | 31043 ft | 506 kts | 51° |
| 2026-04-20 22:50 | 34.77040 | -116.76781 | 31049 ft | 509 kts | 52° |
| 2026-04-20 22:50 | 34.81562 | -116.70143 | 31026 ft | 509 kts | 51° |
| 2026-04-20 22:51 | 34.86095 | -116.63480 | 31004 ft | 510 kts | 50° |
| 2026-04-20 22:51 | 34.90844 | -116.57117 | 30977 ft | 510 kts | 48° |
| 2026-04-20 22:52 | 34.95627 | -116.50774 | 30963 ft | 509 kts | 49° |
| 2026-04-20 22:52 | 35.00391 | -116.44420 | 30943 ft | 509 kts | 49° |
| 2026-04-20 22:53 | 35.05147 | -116.38053 | 30946 ft | 509 kts | 49° |
| 2026-04-20 22:53 | 35.09917 | -116.31647 | 30943 ft | 507 kts | 49° |
| 2026-04-20 22:54 | 35.14662 | -116.25260 | 30943 ft | 509 kts | 49° |
| 2026-04-20 22:54 | 35.19400 | -116.18868 | 30946 ft | 508 kts | 49° |
| 2026-04-20 22:55 | 35.24159 | -116.12434 | 30944 ft | 509 kts | 49° |
| 2026-04-20 22:55 | 35.28899 | -116.06013 | 30931 ft | 508 kts | 49° |
| 2026-04-20 22:56 | 35.33627 | -115.99596 | 30935 ft | 508 kts | 49° |
| 2026-04-20 22:56 | 35.38350 | -115.93174 | 30970 ft | 506 kts | 49° |
| 2026-04-20 22:57 | 35.43041 | -115.86784 | 30992 ft | 508 kts | 49° |
| 2026-04-20 22:57 | 35.47777 | -115.80318 | 31011 ft | 508 kts | 49° |
| 2026-04-20 22:58 | 35.52471 | -115.73898 | 31018 ft | 507 kts | 49° |
| 2026-04-20 22:58 | 35.57175 | -115.67454 | 31024 ft | 506 kts | 49° |
| 2026-04-20 22:59 | 35.61850 | -115.61035 | 31036 ft | 508 kts | 49° |
| 2026-04-20 22:59 | 35.66567 | -115.54548 | 31046 ft | 506 kts | 49° |
| 2026-04-20 23:00 | 35.71230 | -115.48121 | 31061 ft | 505 kts | 49° |
| 2026-04-20 23:00 | 35.75927 | -115.41634 | 31049 ft | 506 kts | 49° |
| 2026-04-20 23:01 | 35.80589 | -115.35184 | 31036 ft | 505 kts | 49° |
| 2026-04-20 23:01 | 35.85272 | -115.28690 | 31027 ft | 505 kts | 49° |
| 2026-04-20 23:02 | 35.89938 | -115.22207 | 31002 ft | 503 kts | 49° |
| 2026-04-20 23:02 | 35.94572 | -115.15756 | 30991 ft | 503 kts | 49° |
| 2026-04-20 23:03 | 35.99186 | -115.09322 | 30987 ft | 504 kts | 49° |
| 2026-04-20 23:03 | 36.03842 | -115.02816 | 30981 ft | 504 kts | 49° |
| 2026-04-20 23:04 | 36.08467 | -114.96342 | 30971 ft | 503 kts | 49° |
| 2026-04-20 23:04 | 36.13092 | -114.89855 | 30961 ft | 502 kts | 49° |
| 2026-04-20 23:05 | 36.17498 | -114.83159 | 30967 ft | 501 kts | 59° |
| 2026-04-20 23:05 | 36.20442 | -114.75366 | 30973 ft | 500 kts | 70° |
| 2026-04-20 23:06 | 36.22908 | -114.67351 | 30979 ft | 499 kts | 70° |
| 2026-04-20 23:06 | 36.25361 | -114.59328 | 30987 ft | 500 kts | 70° |
| 2026-04-20 23:07 | 36.27810 | -114.51286 | 30990 ft | 498 kts | 70° |
| 2026-04-20 23:07 | 36.30253 | -114.43233 | 30996 ft | 498 kts | 70° |
| 2026-04-20 23:08 | 36.32677 | -114.35220 | 31004 ft | 499 kts | 70° |
| 2026-04-20 23:08 | 36.35098 | -114.27196 | 31009 ft | 499 kts | 70° |
| 2026-04-20 23:09 | 36.37519 | -114.19145 | 31011 ft | 499 kts | 70° |
| 2026-04-20 23:09 | 36.39939 | -114.11076 | 31007 ft | 498 kts | 70° |
| 2026-04-20 23:10 | 36.42341 | -114.03046 | 31012 ft | 499 kts | 70° |
| 2026-04-20 23:10 | 36.44745 | -113.94984 | 31039 ft | 496 kts | 70° |
| 2026-04-20 23:11 | 36.47126 | -113.86973 | 31067 ft | 496 kts | 70° |
| 2026-04-20 23:11 | 36.49507 | -113.78943 | 31092 ft | 498 kts | 70° |
| 2026-04-20 23:12 | 36.51902 | -113.70840 | 31107 ft | 496 kts | 70° |
| 2026-04-20 23:12 | 36.54274 | -113.62794 | 31130 ft | 498 kts | 70° |
| 2026-04-20 23:13 | 36.56650 | -113.54706 | 31136 ft | 496 kts | 70° |
| 2026-04-20 23:13 | 36.59003 | -113.46677 | 31152 ft | 496 kts | 70° |
| 2026-04-20 23:14 | 36.61364 | -113.38596 | 31157 ft | 496 kts | 70° |
| 2026-04-20 23:14 | 36.63697 | -113.30584 | 31167 ft | 495 kts | 70° |
| 2026-04-20 23:15 | 36.66043 | -113.22498 | 31169 ft | 495 kts | 70° |
| 2026-04-20 23:15 | 36.68382 | -113.14408 | 31171 ft | 494 kts | 70° |
| 2026-04-20 23:16 | 36.70690 | -113.06402 | 31178 ft | 493 kts | 70° |
| 2026-04-20 23:16 | 36.73009 | -112.98339 | 31179 ft | 492 kts | 70° |
| 2026-04-20 23:17 | 36.75305 | -112.90329 | 31177 ft | 493 kts | 70° |
| 2026-04-20 23:17 | 36.77615 | -112.82248 | 31178 ft | 492 kts | 70° |
| 2026-04-20 23:18 | 36.79893 | -112.74252 | 31172 ft | 491 kts | 70° |
| 2026-04-20 23:18 | 36.82187 | -112.66180 | 31176 ft | 492 kts | 69° |
| 2026-04-20 23:19 | 36.84451 | -112.58186 | 31177 ft | 490 kts | 69° |
| 2026-04-20 23:19 | 36.86721 | -112.50152 | 31187 ft | 490 kts | 70° |
| 2026-04-20 23:20 | 36.88974 | -112.42148 | 31188 ft | 489 kts | 69° |
| 2026-04-20 23:20 | 36.91224 | -112.34109 | 31202 ft | 490 kts | 70° |
| 2026-04-20 23:21 | 36.93459 | -112.26131 | 31201 ft | 490 kts | 70° |
| 2026-04-20 23:21 | 36.95702 | -112.18105 | 31199 ft | 488 kts | 70° |
| 2026-04-20 23:22 | 36.97932 | -112.10101 | 31195 ft | 488 kts | 70° |
| 2026-04-20 23:22 | 37.00152 | -112.02110 | 31193 ft | 487 kts | 70° |
| 2026-04-20 23:23 | 37.02375 | -111.94084 | 31202 ft | 487 kts | 70° |
| 2026-04-20 23:23 | 37.04581 | -111.86094 | 31201 ft | 486 kts | 70° |
| 2026-04-20 23:24 | 37.06781 | -111.78102 | 31207 ft | 487 kts | 70° |
| 2026-04-20 23:24 | 37.08965 | -111.70145 | 31213 ft | 487 kts | 69° |
| 2026-04-20 23:25 | 37.11169 | -111.62090 | 31202 ft | 486 kts | 70° |
| 2026-04-20 23:25 | 37.13350 | -111.54093 | 31202 ft | 486 kts | 69° |
| 2026-04-20 23:26 | 37.15529 | -111.46082 | 31189 ft | 485 kts | 69° |
| 2026-04-20 23:26 | 37.17686 | -111.38127 | 31190 ft | 486 kts | 69° |
| 2026-04-20 23:27 | 37.19853 | -111.30109 | 31180 ft | 485 kts | 70° |
| 2026-04-20 23:27 | 37.22005 | -111.22125 | 31170 ft | 485 kts | 70° |
| 2026-04-20 23:28 | 37.23946 | -111.14026 | 31169 ft | 484 kts | 72° |
| 2026-04-20 23:28 | 37.25818 | -111.05935 | 31173 ft | 484 kts | 72° |
| 2026-04-20 23:29 | 37.27703 | -110.97804 | 31182 ft | 484 kts | 72° |
| 2026-04-20 23:29 | 37.29579 | -110.89709 | 31182 ft | 484 kts | 72° |
| 2026-04-20 23:30 | 37.31459 | -110.81581 | 31179 ft | 484 kts | 72° |
| 2026-04-20 23:30 | 37.33324 | -110.73495 | 31179 ft | 484 kts | 72° |
| 2026-04-20 23:31 | 37.35185 | -110.65407 | 31177 ft | 483 kts | 72° |
| 2026-04-20 23:31 | 37.37042 | -110.57307 | 31176 ft | 483 kts | 71° |
| 2026-04-20 23:32 | 37.38895 | -110.49197 | 31180 ft | 482 kts | 71° |
| 2026-04-20 23:32 | 37.40733 | -110.41124 | 31192 ft | 482 kts | 71° |
| 2026-04-20 23:33 | 37.42566 | -110.33046 | 31204 ft | 481 kts | 72° |
| 2026-04-20 23:33 | 37.44398 | -110.24948 | 31214 ft | 482 kts | 72° |
| 2026-04-20 23:34 | 37.46223 | -110.16851 | 31226 ft | 481 kts | 72° |
| 2026-04-20 23:34 | 37.48041 | -110.08755 | 31224 ft | 480 kts | 72° |
| 2026-04-20 23:35 | 37.50805 | -109.96649 | 31227 ft | 479 kts | 70° |
| 2026-04-20 23:36 | 37.52897 | -109.88680 | 31236 ft | 480 kts | 69° |
| 2026-04-20 23:36 | 37.54963 | -109.80763 | 31234 ft | 479 kts | 69° |
| 2026-04-20 23:37 | 37.57041 | -109.72746 | 31237 ft | 480 kts | 69° |
| 2026-04-20 23:37 | 37.59092 | -109.64784 | 31219 ft | 480 kts | 69° |
| 2026-04-20 23:38 | 37.61148 | -109.56770 | 31217 ft | 480 kts | 70° |
| 2026-04-20 23:38 | 37.63188 | -109.48789 | 31222 ft | 479 kts | 70° |
| 2026-04-20 23:39 | 37.65221 | -109.40802 | 31217 ft | 479 kts | 70° |
| 2026-04-20 23:39 | 37.67267 | -109.32745 | 31226 ft | 480 kts | 70° |
| 2026-04-20 23:40 | 37.69294 | -109.24728 | 31228 ft | 480 kts | 70° |
| 2026-04-20 23:40 | 37.71319 | -109.16693 | 31258 ft | 479 kts | 70° |
| 2026-04-20 23:41 | 37.73334 | -109.08674 | 31266 ft | 479 kts | 70° |
| 2026-04-20 23:41 | 37.75350 | -109.00627 | 31272 ft | 479 kts | 70° |
| 2026-04-20 23:42 | 37.77344 | -108.92641 | 31291 ft | 480 kts | 70° |
| 2026-04-20 23:42 | 37.79343 | -108.84606 | 31301 ft | 479 kts | 70° |
| 2026-04-20 23:43 | 37.81351 | -108.76510 | 31317 ft | 481 kts | 70° |
| 2026-04-20 23:43 | 37.83340 | -108.68462 | 31328 ft | 479 kts | 70° |
| 2026-04-20 23:44 | 37.85323 | -108.60414 | 31352 ft | 481 kts | 70° |
| 2026-04-20 23:44 | 37.87303 | -108.52352 | 31344 ft | 481 kts | 70° |
| 2026-04-20 23:45 | 37.89280 | -108.44274 | 31366 ft | 483 kts | 70° |
| 2026-04-20 23:45 | 37.91263 | -108.36146 | 31373 ft | 484 kts | 70° |
| 2026-04-20 23:46 | 37.93248 | -108.27980 | 31391 ft | 485 kts | 71° |
| 2026-04-20 23:46 | 37.95232 | -108.19794 | 31406 ft | 485 kts | 71° |
| 2026-04-20 23:47 | 37.97205 | -108.11620 | 31403 ft | 484 kts | 71° |
| 2026-04-20 23:47 | 37.99181 | -108.03410 | 31382 ft | 485 kts | 71° |
| 2026-04-20 23:48 | 38.01195 | -107.95274 | 31385 ft | 485 kts | 70° |
| 2026-04-20 23:48 | 38.03325 | -107.87116 | 31392 ft | 486 kts | 70° |
| 2026-04-20 23:49 | 38.05434 | -107.78990 | 31412 ft | 487 kts | 70° |
| 2026-04-20 23:49 | 38.07536 | -107.70853 | 31431 ft | 489 kts | 70° |
| 2026-04-20 23:50 | 38.09645 | -107.62652 | 31453 ft | 488 kts | 70° |
| 2026-04-20 23:50 | 38.11744 | -107.54456 | 31472 ft | 488 kts | 70° |
| 2026-04-20 23:51 | 38.13845 | -107.46222 | 31475 ft | 490 kts | 70° |
| 2026-04-20 23:51 | 38.15938 | -107.37994 | 31477 ft | 490 kts | 70° |
| 2026-04-20 23:52 | 38.18033 | -107.29731 | 31486 ft | 490 kts | 71° |
| 2026-04-20 23:52 | 38.20127 | -107.21440 | 31499 ft | 492 kts | 71° |
| 2026-04-20 23:53 | 38.22197 | -107.13216 | 31508 ft | 490 kts | 71° |
| 2026-04-20 23:53 | 38.24271 | -107.04953 | 31517 ft | 493 kts | 71° |
| 2026-04-20 23:54 | 38.26360 | -106.96596 | 31512 ft | 492 kts | 71° |
| 2026-04-20 23:54 | 38.28432 | -106.88284 | 31512 ft | 493 kts | 71° |
| 2026-04-20 23:55 | 38.30498 | -106.79964 | 31519 ft | 493 kts | 71° |
| 2026-04-20 23:55 | 38.32560 | -106.71632 | 31508 ft | 493 kts | 71° |
| 2026-04-20 23:56 | 38.34605 | -106.63345 | 31481 ft | 493 kts | 71° |
| 2026-04-20 23:56 | 38.36648 | -106.55034 | 31475 ft | 492 kts | 71° |
| 2026-04-20 23:57 | 38.38686 | -106.46715 | 31482 ft | 493 kts | 71° |
| 2026-04-20 23:57 | 38.40733 | -106.38330 | 31463 ft | 494 kts | 71° |
| 2026-04-20 23:58 | 38.42760 | -106.29999 | 31455 ft | 494 kts | 72° |
| 2026-04-20 23:58 | 38.44790 | -106.21624 | 31405 ft | 495 kts | 72° |
| 2026-04-20 23:59 | 38.46809 | -106.13269 | 31367 ft | 495 kts | 71° |
| 2026-04-20 23:59 | 38.48837 | -106.04845 | 31330 ft | 496 kts | 71° |
| 2026-04-21 00:00 | 38.50775 | -105.96465 | 31307 ft | 495 kts | 74° |
| 2026-04-21 00:00 | 38.52405 | -105.87907 | 31355 ft | 496 kts | 75° |
| 2026-04-21 00:01 | 38.54031 | -105.79363 | 31378 ft | 495 kts | 75° |
| 2026-04-21 00:01 | 38.55661 | -105.70826 | 31403 ft | 500 kts | 75° |
| 2026-04-21 00:02 | 38.57299 | -105.62240 | 31413 ft | 496 kts | 75° |
| 2026-04-21 00:02 | 38.58938 | -105.53630 | 31404 ft | 498 kts | 75° |
| 2026-04-21 00:03 | 38.60555 | -105.45109 | 31399 ft | 498 kts | 75° |
| 2026-04-21 00:03 | 38.62184 | -105.36495 | 31398 ft | 499 kts | 75° |
| 2026-04-21 00:04 | 38.63803 | -105.27899 | 31384 ft | 498 kts | 76° |
| 2026-04-21 00:04 | 38.65422 | -105.19268 | 31390 ft | 501 kts | 76° |
| 2026-04-21 00:05 | 38.67041 | -105.10595 | 31382 ft | 498 kts | 75° |
| 2026-04-21 00:05 | 38.68639 | -105.02005 | 31364 ft | 501 kts | 75° |
| 2026-04-21 00:06 | 38.70243 | -104.93339 | 31302 ft | 500 kts | 75° |
| 2026-04-21 00:06 | 38.71841 | -104.84669 | 31216 ft | 501 kts | 75° |
| 2026-04-21 00:07 | 38.73423 | -104.76045 | 31174 ft | 498 kts | 75° |
| 2026-04-21 00:07 | 38.75002 | -104.67403 | 31154 ft | 499 kts | 75° |
| 2026-04-21 00:08 | 38.76566 | -104.58807 | 31171 ft | 500 kts | 75° |
| 2026-04-21 00:08 | 38.78131 | -104.50159 | 31178 ft | 498 kts | 75° |
| 2026-04-21 00:09 | 38.79690 | -104.41509 | 31194 ft | 497 kts | 75° |
| 2026-04-21 00:09 | 38.81241 | -104.32867 | 31236 ft | 497 kts | 76° |
| 2026-04-21 00:10 | 38.82773 | -104.24289 | 31233 ft | 498 kts | 76° |
| 2026-04-21 00:10 | 38.84307 | -104.15659 | 31245 ft | 498 kts | 76° |
| 2026-04-21 00:11 | 38.85839 | -104.07005 | 31224 ft | 498 kts | 76° |
| 2026-04-21 00:11 | 38.87367 | -103.98333 | 31215 ft | 498 kts | 76° |
| 2026-04-21 00:12 | 38.88885 | -103.89671 | 31200 ft | 497 kts | 76° |
| 2026-04-21 00:12 | 38.90385 | -103.81078 | 31200 ft | 498 kts | 76° |
| 2026-04-21 00:13 | 38.91897 | -103.72379 | 31192 ft | 499 kts | 76° |
| 2026-04-21 00:13 | 38.93394 | -103.63723 | 31188 ft | 499 kts | 76° |
| 2026-04-21 00:14 | 38.94891 | -103.55024 | 31172 ft | 498 kts | 76° |
| 2026-04-21 00:14 | 38.96372 | -103.46379 | 31172 ft | 498 kts | 76° |
| 2026-04-21 00:15 | 38.97849 | -103.37712 | 31163 ft | 498 kts | 76° |
| 2026-04-21 00:15 | 38.99318 | -103.29055 | 31148 ft | 497 kts | 76° |
| 2026-04-21 00:16 | 39.00779 | -103.20405 | 31139 ft | 498 kts | 77° |
| 2026-04-21 00:16 | 39.02240 | -103.11711 | 31137 ft | 500 kts | 76° |
| 2026-04-21 00:17 | 39.03701 | -103.02973 | 31134 ft | 499 kts | 76° |
| 2026-04-21 00:17 | 39.05155 | -102.94237 | 31131 ft | 499 kts | 77° |
| 2026-04-21 00:18 | 39.06592 | -102.85561 | 31127 ft | 499 kts | 76° |
| 2026-04-21 00:18 | 39.08034 | -102.76810 | 31120 ft | 498 kts | 76° |
| 2026-04-21 00:19 | 39.09462 | -102.68104 | 31115 ft | 500 kts | 76° |
| 2026-04-21 00:19 | 39.10879 | -102.59420 | 31110 ft | 499 kts | 76° |
| 2026-04-21 00:20 | 39.12304 | -102.50643 | 31099 ft | 500 kts | 76° |
| 2026-04-21 00:20 | 39.13718 | -102.41892 | 31090 ft | 500 kts | 76° |
| 2026-04-21 00:21 | 39.15121 | -102.33164 | 31072 ft | 500 kts | 77° |
| 2026-04-21 00:21 | 39.16521 | -102.24408 | 31062 ft | 499 kts | 77° |
| 2026-04-21 00:22 | 39.17911 | -102.15673 | 31064 ft | 500 kts | 77° |
| 2026-04-21 00:22 | 39.19297 | -102.06918 | 31067 ft | 500 kts | 77° |
| 2026-04-21 00:23 | 39.20687 | -101.98094 | 31067 ft | 501 kts | 77° |
| 2026-04-21 00:23 | 39.22060 | -101.89329 | 31065 ft | 502 kts | 77° |
| 2026-04-21 00:24 | 39.23430 | -101.80546 | 31054 ft | 502 kts | 77° |
| 2026-04-21 00:24 | 39.24799 | -101.71715 | 31044 ft | 502 kts | 77° |
| 2026-04-21 00:25 | 39.26158 | -101.62902 | 31037 ft | 503 kts | 77° |
| 2026-04-21 00:25 | 39.27513 | -101.54070 | 31037 ft | 504 kts | 77° |
| 2026-04-21 00:26 | 39.28867 | -101.45198 | 31033 ft | 503 kts | 77° |
| 2026-04-21 00:26 | 39.30207 | -101.36370 | 31031 ft | 503 kts | 77° |
| 2026-04-21 00:27 | 39.31545 | -101.27514 | 31021 ft | 505 kts | 78° |
| 2026-04-21 00:27 | 39.32879 | -101.18626 | 31007 ft | 504 kts | 78° |
| 2026-04-21 00:28 | 39.34201 | -101.09779 | 31000 ft | 504 kts | 78° |
| 2026-04-21 00:28 | 39.35521 | -101.00890 | 31002 ft | 505 kts | 78° |
| 2026-04-21 00:29 | 39.36842 | -100.91952 | 31002 ft | 506 kts | 78° |
| 2026-04-21 00:29 | 39.38140 | -100.83112 | 31006 ft | 504 kts | 78° |
| 2026-04-21 00:30 | 39.39450 | -100.74148 | 31011 ft | 506 kts | 78° |
| 2026-04-21 00:30 | 39.40745 | -100.65231 | 31010 ft | 506 kts | 78° |
| 2026-04-21 00:31 | 39.42033 | -100.56313 | 31004 ft | 505 kts | 78° |
| 2026-04-21 00:31 | 39.43324 | -100.47326 | 30998 ft | 506 kts | 78° |
| 2026-04-21 00:32 | 39.44590 | -100.38460 | 30992 ft | 505 kts | 78° |
| 2026-04-21 00:32 | 39.45862 | -100.29504 | 30981 ft | 505 kts | 79° |
| 2026-04-21 00:33 | 39.47119 | -100.20602 | 30978 ft | 507 kts | 79° |
| 2026-04-21 00:33 | 39.48373 | -100.11664 | 30970 ft | 505 kts | 79° |
| 2026-04-21 00:34 | 39.49618 | -100.02747 | 30969 ft | 506 kts | 79° |
| 2026-04-21 00:34 | 39.51555 | -99.94019 | 30972 ft | 504 kts | 68° |
| 2026-04-21 00:35 | 39.53987 | -99.85548 | 30977 ft | 504 kts | 68° |
| 2026-04-21 00:35 | 39.56401 | -99.77039 | 30971 ft | 504 kts | 68° |
| 2026-04-21 00:36 | 39.58806 | -99.68479 | 30971 ft | 505 kts | 69° |
| 2026-04-21 00:36 | 39.61184 | -99.59959 | 30970 ft | 504 kts | 69° |
| 2026-04-21 00:37 | 39.63553 | -99.51425 | 30973 ft | 505 kts | 69° |
| 2026-04-21 00:37 | 39.65919 | -99.42860 | 30971 ft | 505 kts | 69° |
| 2026-04-21 00:38 | 39.68294 | -99.34235 | 30974 ft | 506 kts | 69° |
| 2026-04-21 00:38 | 39.70636 | -99.25697 | 30969 ft | 504 kts | 69° |
| 2026-04-21 00:39 | 39.72984 | -99.17109 | 30971 ft | 506 kts | 69° |
| 2026-04-21 00:39 | 39.75331 | -99.08491 | 30958 ft | 507 kts | 69° |
| 2026-04-21 00:40 | 39.77679 | -98.99840 | 30955 ft | 506 kts | 69° |
| 2026-04-21 00:40 | 39.80021 | -98.91183 | 30959 ft | 507 kts | 69° |
| 2026-04-21 00:41 | 39.82350 | -98.82542 | 30963 ft | 507 kts | 69° |
| 2026-04-21 00:41 | 39.84664 | -98.73930 | 30961 ft | 508 kts | 69° |
| 2026-04-21 00:42 | 39.86982 | -98.65270 | 30976 ft | 507 kts | 69° |
| 2026-04-21 00:42 | 39.89303 | -98.56572 | 30960 ft | 508 kts | 69° |
| 2026-04-21 00:43 | 39.91622 | -98.47849 | 30971 ft | 508 kts | 69° |
| 2026-04-21 00:43 | 39.93917 | -98.39186 | 30971 ft | 506 kts | 69° |
| 2026-04-21 00:44 | 39.96217 | -98.30479 | 30971 ft | 508 kts | 69° |
| 2026-04-21 00:44 | 39.98506 | -98.21777 | 30977 ft | 508 kts | 69° |
| 2026-04-21 00:45 | 40.01926 | -98.08719 | 30979 ft | 508 kts | 69° |
| 2026-04-21 00:45 | 40.04192 | -98.00031 | 30981 ft | 509 kts | 69° |
| 2026-04-21 00:46 | 40.06457 | -97.91318 | 30981 ft | 509 kts | 69° |
| 2026-04-21 00:46 | 40.08731 | -97.82533 | 30989 ft | 510 kts | 69° |
| 2026-04-21 00:47 | 40.10988 | -97.73786 | 31005 ft | 509 kts | 69° |
| 2026-04-21 00:47 | 40.13250 | -97.64988 | 31009 ft | 509 kts | 69° |
| 2026-04-21 00:48 | 40.15480 | -97.56283 | 31002 ft | 510 kts | 69° |
| 2026-04-21 00:48 | 40.17725 | -97.47490 | 31001 ft | 510 kts | 69° |
| 2026-04-21 00:49 | 40.19970 | -97.38660 | 31006 ft | 510 kts | 69° |
| 2026-04-21 00:49 | 40.22207 | -97.29836 | 30997 ft | 511 kts | 70° |
| 2026-04-21 00:50 | 40.24424 | -97.21051 | 30990 ft | 511 kts | 70° |
| 2026-04-21 00:50 | 40.26644 | -97.12226 | 30992 ft | 511 kts | 70° |
| 2026-04-21 00:51 | 40.28861 | -97.03382 | 30993 ft | 512 kts | 70° |
| 2026-04-21 00:51 | 40.31056 | -96.94592 | 31007 ft | 512 kts | 69° |
| 2026-04-21 00:52 | 40.33267 | -96.85702 | 31014 ft | 510 kts | 69° |
| 2026-04-21 00:52 | 40.35458 | -96.76862 | 31021 ft | 511 kts | 69° |
| 2026-04-21 00:53 | 40.37653 | -96.67973 | 31017 ft | 511 kts | 69° |
| 2026-04-21 00:53 | 40.39829 | -96.59130 | 31015 ft | 511 kts | 69° |
| 2026-04-21 00:54 | 40.42004 | -96.50257 | 31018 ft | 512 kts | 69° |
| 2026-04-21 00:54 | 40.44178 | -96.41351 | 31018 ft | 512 kts | 69° |
| 2026-04-21 00:55 | 40.46339 | -96.32466 | 31013 ft | 512 kts | 70° |
| 2026-04-21 00:55 | 40.48499 | -96.23556 | 31010 ft | 511 kts | 70° |
| 2026-04-21 00:56 | 40.50657 | -96.14616 | 31001 ft | 514 kts | 70° |
| 2026-04-21 00:56 | 40.52807 | -96.05673 | 31004 ft | 513 kts | 70° |
| 2026-04-21 00:57 | 40.54946 | -95.96741 | 31009 ft | 512 kts | 69° |
| 2026-04-21 00:57 | 40.57074 | -95.87826 | 31019 ft | 512 kts | 69° |
| 2026-04-21 00:58 | 40.59190 | -95.78925 | 31019 ft | 513 kts | 69° |
| 2026-04-21 00:58 | 40.61302 | -95.70005 | 31018 ft | 513 kts | 69° |
| 2026-04-21 00:59 | 40.63415 | -95.61044 | 31021 ft | 513 kts | 69° |
| 2026-04-21 00:59 | 40.65525 | -95.52063 | 31018 ft | 513 kts | 69° |
| 2026-04-21 01:00 | 40.67625 | -95.43089 | 31017 ft | 512 kts | 69° |
| 2026-04-21 01:00 | 40.69719 | -95.34106 | 31020 ft | 513 kts | 70° |
| 2026-04-21 01:01 | 40.71801 | -95.25140 | 31017 ft | 513 kts | 70° |
| 2026-04-21 01:01 | 40.73888 | -95.16113 | 31025 ft | 513 kts | 69° |
| 2026-04-21 01:02 | 40.75954 | -95.07146 | 31027 ft | 513 kts | 69° |
| 2026-04-21 01:02 | 40.78017 | -94.98149 | 31026 ft | 512 kts | 69° |
| 2026-04-21 01:03 | 40.80080 | -94.89122 | 31022 ft | 513 kts | 69° |
| 2026-04-21 01:03 | 40.82127 | -94.80129 | 31021 ft | 514 kts | 69° |
| 2026-04-21 01:04 | 40.84176 | -94.71091 | 31016 ft | 513 kts | 69° |
| 2026-04-21 01:04 | 40.86210 | -94.62079 | 31019 ft | 514 kts | 69° |
| 2026-04-21 01:05 | 40.88230 | -94.53092 | 31039 ft | 512 kts | 69° |
| 2026-04-21 01:05 | 40.90255 | -94.44052 | 31036 ft | 514 kts | 69° |
| 2026-04-21 01:06 | 40.92270 | -94.35012 | 31043 ft | 513 kts | 69° |
| 2026-04-21 01:06 | 40.94280 | -94.25961 | 31040 ft | 513 kts | 69° |
| 2026-04-21 01:07 | 40.96283 | -94.16904 | 31034 ft | 513 kts | 69° |
| 2026-04-21 01:07 | 40.98276 | -94.07856 | 31040 ft | 513 kts | 69° |
| 2026-04-21 01:08 | 41.00415 | -93.98843 | 31045 ft | 508 kts | 62° |
| 2026-04-21 01:08 | 41.03626 | -93.90605 | 31051 ft | 502 kts | 56° |
| 2026-04-21 01:09 | 41.06924 | -93.82510 | 31044 ft | 502 kts | 56° |
| 2026-04-21 01:09 | 41.10210 | -93.74352 | 31050 ft | 503 kts | 56° |
| 2026-04-21 01:10 | 41.13495 | -93.66135 | 31055 ft | 503 kts | 56° |
| 2026-04-21 01:10 | 41.16751 | -93.57944 | 31060 ft | 502 kts | 56° |
| 2026-04-21 01:11 | 41.19999 | -93.49740 | 31057 ft | 503 kts | 56° |
| 2026-04-21 01:11 | 41.23228 | -93.41553 | 31054 ft | 502 kts | 56° |